createdAt,value
2018-03-21T00:00:32.317Z,2.27
2018-03-21T00:02:59.816Z,2.67
2018-03-21T00:05:27.305Z,2.97
2018-03-21T00:07:58.441Z,3.67
2018-03-21T00:10:25.936Z,2.07
2018-03-21T00:12:53.444Z,2.70
2018-03-21T00:15:21.706Z,2.60
2018-03-21T00:17:49.208Z,2.70
2018-03-21T00:20:16.731Z,3.00
2018-03-21T00:22:44.211Z,2.50
2018-03-21T00:25:11.727Z,2.83
2018-03-21T00:27:39.221Z,2.83
2018-03-21T00:30:06.730Z,2.30
2018-03-21T00:32:34.223Z,2.60
2018-03-21T00:35:02.466Z,2.90
2018-03-21T00:37:29.968Z,3.00
2018-03-21T00:39:57.450Z,2.67
2018-03-21T00:42:24.956Z,2.67
2018-03-21T00:44:52.436Z,2.63
2018-03-21T00:47:20.696Z,2.77
2018-03-21T00:49:48.191Z,2.57
2018-03-21T00:52:15.675Z,2.40
2018-03-21T00:54:43.172Z,2.70
2018-03-21T00:57:11.401Z,2.30
2018-03-21T00:59:38.872Z,2.50
2018-03-21T01:02:06.381Z,2.70
2018-03-21T01:04:33.859Z,2.70
2018-03-21T01:07:01.359Z,2.63
2018-03-21T01:09:28.852Z,2.07
2018-03-21T01:11:56.349Z,2.45
2018-03-21T01:14:23.836Z,2.70
2018-03-21T01:16:51.329Z,3.57
2018-03-21T01:19:18.864Z,2.90
2018-03-21T01:21:46.354Z,2.80
2018-03-21T01:24:17.563Z,2.40
2018-03-21T01:26:45.921Z,3.00
2018-03-21T01:29:13.423Z,3.03
2018-03-21T01:31:40.939Z,2.70
2018-03-21T01:34:08.417Z,3.05
2018-03-21T01:36:36.652Z,3.90
2018-03-21T01:39:04.149Z,2.90
2018-03-21T01:41:32.397Z,2.83
2018-03-21T01:43:59.910Z,2.62
2018-03-21T01:46:27.401Z,3.00
2018-03-21T01:48:54.884Z,3.25
2018-03-21T01:51:22.385Z,3.12
2018-03-21T01:53:49.868Z,3.55
2018-03-21T01:56:17.368Z,3.05
2018-03-21T01:58:44.864Z,2.78
2018-03-21T02:01:12.342Z,2.62
2018-03-21T02:03:39.835Z,3.00
2018-03-21T02:06:07.322Z,3.00
2018-03-21T02:08:34.825Z,2.80
2018-03-21T02:11:02.308Z,2.70
2018-03-21T02:13:30.583Z,2.62
2018-03-21T02:15:58.208Z,2.65
2018-03-21T02:18:26.472Z,3.03
2018-03-21T02:20:53.956Z,2.95
2018-03-21T02:23:21.453Z,2.75
2018-03-21T02:25:49.266Z,2.87
2018-03-21T02:28:16.775Z,2.70
2018-03-21T02:30:45.044Z,2.60
2018-03-21T02:33:12.543Z,3.40
2018-03-21T02:35:40.044Z,3.03
2018-03-21T02:38:07.537Z,2.90
2018-03-21T02:40:35.046Z,3.05
2018-03-21T02:43:02.527Z,2.95
2018-03-21T02:45:30.033Z,2.78
2018-03-21T02:47:57.520Z,3.17
2018-03-21T02:50:25.017Z,2.60
2018-03-21T02:52:53.265Z,2.80
2018-03-21T02:55:20.750Z,2.92
2018-03-21T02:57:48.243Z,3.05
2018-03-21T03:00:15.748Z,3.00
2018-03-21T03:02:43.238Z,3.35
2018-03-21T03:05:10.736Z,3.08
2018-03-21T03:07:38.238Z,2.83
2018-03-21T03:10:06.496Z,2.92
2018-03-21T03:12:33.979Z,3.15
2018-03-21T03:15:01.454Z,3.42
2018-03-21T03:17:28.964Z,2.87
2018-03-21T03:19:56.435Z,2.95
2018-03-21T03:22:24.719Z,2.80
2018-03-21T03:24:52.233Z,3.00
2018-03-21T03:27:19.696Z,3.40
2018-03-21T03:29:47.191Z,3.53
2018-03-21T03:32:14.670Z,3.40
2018-03-21T03:34:42.195Z,3.78
2018-03-21T03:37:09.718Z,3.15
2018-03-21T03:39:37.206Z,2.70
2018-03-21T03:42:05.505Z,3.67
2018-03-21T03:44:33.001Z,4.12
2018-03-21T03:47:00.501Z,3.40
2018-03-21T03:49:28.013Z,3.20
2018-03-21T03:51:55.494Z,3.00
2018-03-21T03:54:22.994Z,2.90
2018-03-21T03:56:50.484Z,3.47
2018-03-21T03:59:18.259Z,3.55
2018-03-21T04:01:45.755Z,3.67
2018-03-21T04:04:13.243Z,3.45
2018-03-21T04:06:41.053Z,3.60
2018-03-21T04:09:08.566Z,3.53
2018-03-21T04:11:36.072Z,2.95
2018-03-21T04:14:03.540Z,3.30
2018-03-21T04:16:31.788Z,3.05
2018-03-21T04:18:59.301Z,3.75
2018-03-21T04:21:26.854Z,3.58
2018-03-21T04:23:54.367Z,3.60
2018-03-21T04:26:22.607Z,3.40
2018-03-21T04:28:50.099Z,3.53
2018-03-21T04:31:17.587Z,4.18
2018-03-21T04:33:45.087Z,3.80
2018-03-21T04:36:12.574Z,3.58
2018-03-21T04:38:40.058Z,2.90
2018-03-21T04:41:08.341Z,3.30
2018-03-21T04:43:36.593Z,3.50
2018-03-21T04:46:04.067Z,3.33
2018-03-21T04:48:32.367Z,3.22
2018-03-21T04:50:59.858Z,3.20
2018-03-21T04:53:27.362Z,3.70
2018-03-21T04:55:55.650Z,4.20
2018-03-21T04:58:23.895Z,3.40
2018-03-21T05:00:51.396Z,3.83
2018-03-21T05:03:18.896Z,4.15
2018-03-21T05:05:46.427Z,4.18
2018-03-21T05:08:13.929Z,4.18
2018-03-21T05:10:41.411Z,3.75
2018-03-21T05:13:09.663Z,3.80
2018-03-21T05:15:37.169Z,3.83
2018-03-21T05:18:04.656Z,3.85
2018-03-21T05:20:32.149Z,3.50
2018-03-21T05:22:59.656Z,4.05
2018-03-21T05:25:27.162Z,3.65
2018-03-21T05:27:54.657Z,4.05
2018-03-21T05:30:22.168Z,4.70
2018-03-21T05:32:50.654Z,4.97
2018-03-21T05:35:18.153Z,4.40
2018-03-21T05:37:45.647Z,4.53
2018-03-21T05:40:13.137Z,4.20
2018-03-21T05:42:41.412Z,4.55
2018-03-21T05:45:09.692Z,3.60
2018-03-21T05:47:37.943Z,8.48
2018-03-21T05:50:06.228Z,7.37
2018-03-21T05:52:33.725Z,6.10
2018-03-21T05:55:01.202Z,7.07
2018-03-21T05:57:28.708Z,5.25
2018-03-21T05:59:56.214Z,4.62
2018-03-21T06:02:23.765Z,5.07
2018-03-21T06:04:51.284Z,5.40
2018-03-21T06:07:18.784Z,5.65
2018-03-21T06:09:46.298Z,5.07
2018-03-21T06:12:14.817Z,4.18
2018-03-21T06:14:42.609Z,5.20
2018-03-21T06:17:10.098Z,4.18
2018-03-21T06:19:38.392Z,4.53
2018-03-21T06:22:06.664Z,4.83
2018-03-21T06:24:34.908Z,3.70
2018-03-21T06:27:02.667Z,5.20
2018-03-21T06:29:30.149Z,5.63
2018-03-21T06:31:57.615Z,5.43
2018-03-21T06:34:25.113Z,5.30
2018-03-21T06:36:52.584Z,4.57
2018-03-21T06:39:20.093Z,4.20
2018-03-21T06:41:48.326Z,4.30
2018-03-21T06:44:15.863Z,5.00
2018-03-21T06:46:43.442Z,4.00
2018-03-21T06:49:10.928Z,4.30
2018-03-21T06:51:38.458Z,4.83
2018-03-21T06:54:05.939Z,4.40
2018-03-21T06:56:33.412Z,4.37
2018-03-21T06:59:01.663Z,4.03
2018-03-21T07:01:29.156Z,3.30
2018-03-21T07:03:57.728Z,3.60
2018-03-21T07:06:25.986Z,4.10
2018-03-21T07:08:53.452Z,4.10
2018-03-21T07:11:20.964Z,3.97
2018-03-21T07:14:00.230Z,4.37
2018-03-21T07:16:39.596Z,4.57
2018-03-21T07:19:07.073Z,3.53
2018-03-21T07:21:34.576Z,4.43
2018-03-21T07:24:02.053Z,4.30
2018-03-21T07:26:30.324Z,4.63
2018-03-21T07:28:58.631Z,4.37
2018-03-21T07:31:26.098Z,5.10
2018-03-21T07:33:53.595Z,5.30
2018-03-21T07:36:21.079Z,5.00
2018-03-21T07:38:48.543Z,4.57
2018-03-21T07:41:16.053Z,4.90
2018-03-21T07:43:43.541Z,5.00
2018-03-21T07:46:11.042Z,5.07
2018-03-21T07:48:38.510Z,4.90
2018-03-21T07:51:05.988Z,5.23
2018-03-21T07:53:33.497Z,5.17
2018-03-21T07:56:01.759Z,4.63
2018-03-21T07:58:29.994Z,5.13
2018-03-21T08:00:57.465Z,4.93
2018-03-21T08:03:24.937Z,5.80
2018-03-21T08:05:52.427Z,5.40
2018-03-21T08:08:19.960Z,4.70
2018-03-21T08:10:47.413Z,3.90
2018-03-21T08:13:14.879Z,4.30
2018-03-21T08:15:49.562Z,4.50
2018-03-21T08:18:17.063Z,3.80
2018-03-21T08:20:45.333Z,4.20
2018-03-21T08:23:13.601Z,4.00
2018-03-21T08:25:41.063Z,3.73
2018-03-21T08:28:09.763Z,4.00
2018-03-21T08:30:38.062Z,3.27
2018-03-21T08:33:05.548Z,3.60
2018-03-21T08:35:33.058Z,3.43
2018-03-21T08:38:01.317Z,3.87
2018-03-21T08:40:28.800Z,3.70
2018-03-21T08:42:56.305Z,3.10
2018-03-21T08:45:23.807Z,3.10
2018-03-21T08:47:52.337Z,4.70
2018-03-21T08:50:19.962Z,2.73
2018-03-21T08:52:47.497Z,3.40
2018-03-21T08:55:15.006Z,3.00
2018-03-21T08:57:42.484Z,2.90
2018-03-21T09:00:09.977Z,2.53
2018-03-21T09:02:37.470Z,3.17
2018-03-21T09:05:04.964Z,2.30
2018-03-21T09:07:32.451Z,2.30
2018-03-21T09:10:00.703Z,2.07
2018-03-21T09:12:28.187Z,2.70
2018-03-21T09:14:55.674Z,2.30
2018-03-21T09:17:23.173Z,2.40
2018-03-21T09:19:50.706Z,2.50
2018-03-21T09:22:18.207Z,2.20
2018-03-21T09:24:46.479Z,1.83
2018-03-21T09:27:14.220Z,1.90
2018-03-21T09:29:41.703Z,2.10
2018-03-21T09:32:09.984Z,1.97
2018-03-21T09:34:38.217Z,2.50
2018-03-21T09:37:05.718Z,2.40
2018-03-21T09:39:33.958Z,2.00
2018-03-21T09:42:01.442Z,2.40
2018-03-21T09:44:29.691Z,1.73
2018-03-21T09:46:57.186Z,1.40
2018-03-21T09:49:24.677Z,1.67
2018-03-21T09:51:52.155Z,1.90
2018-03-21T09:54:19.657Z,1.83
2018-03-21T09:56:47.158Z,1.60
2018-03-21T09:59:14.632Z,1.60
2018-03-21T10:01:42.135Z,1.70
2018-03-21T10:04:09.612Z,2.07
2018-03-21T10:06:37.125Z,2.07
2018-03-21T10:09:04.615Z,2.00
2018-03-21T10:11:32.134Z,2.20
2018-03-21T10:13:59.644Z,1.83
2018-03-21T10:16:27.128Z,1.90
2018-03-21T10:18:54.625Z,1.80
2018-03-21T10:21:22.904Z,2.53
2018-03-21T10:23:51.178Z,1.80
2018-03-21T10:26:19.440Z,1.50
2018-03-21T10:28:46.946Z,1.70
2018-03-21T10:31:14.462Z,2.00
2018-03-21T10:33:42.737Z,1.70
2018-03-21T10:36:10.204Z,1.93
2018-03-21T10:38:38.479Z,1.50
2018-03-21T10:41:06.719Z,2.00
2018-03-21T10:43:34.211Z,1.93
2018-03-21T10:46:02.479Z,1.67
2018-03-21T10:48:30.728Z,1.93
2018-03-21T10:50:58.244Z,1.70
2018-03-21T10:53:25.762Z,2.03
2018-03-21T10:55:53.259Z,1.60
2018-03-21T10:58:20.740Z,1.30
2018-03-21T11:00:48.214Z,1.97
2018-03-21T11:03:15.723Z,2.00
2018-03-21T11:05:43.226Z,1.97
2018-03-21T11:08:10.777Z,3.30
2018-03-21T11:10:38.220Z,1.90
2018-03-21T11:13:05.703Z,1.60
2018-03-21T11:15:33.210Z,1.90
2018-03-21T11:18:00.687Z,1.90
2018-03-21T11:20:28.177Z,1.83
2018-03-21T11:22:55.687Z,2.13
2018-03-21T11:25:23.315Z,1.93
2018-03-21T11:27:50.833Z,1.83
2018-03-21T11:30:18.636Z,1.97
2018-03-21T11:32:46.125Z,2.67
2018-03-21T11:35:13.608Z,1.63
2018-03-21T11:37:41.086Z,1.70
2018-03-21T11:40:08.610Z,1.63
2018-03-21T11:42:36.155Z,1.80
2018-03-21T11:45:03.687Z,1.90
2018-03-21T11:47:31.118Z,2.20
2018-03-21T11:49:58.616Z,2.47
2018-03-21T11:52:26.889Z,1.90
2018-03-21T11:54:54.363Z,2.23
2018-03-21T11:57:21.838Z,2.17
2018-03-21T11:59:49.328Z,1.87
2018-03-21T12:02:16.796Z,2.13
2018-03-21T12:04:44.286Z,2.00
2018-03-21T12:07:11.753Z,2.00
2018-03-21T12:09:39.251Z,4.73
2018-03-21T12:12:06.881Z,2.40
2018-03-21T12:14:35.006Z,2.10
2018-03-21T12:17:02.527Z,1.90
2018-03-21T12:19:30.002Z,1.90
2018-03-21T12:21:57.501Z,2.13
2018-03-21T12:24:25.811Z,2.07
2018-03-21T12:26:53.314Z,2.20
2018-03-21T12:29:20.807Z,2.30
2018-03-21T12:31:48.290Z,2.30
2018-03-21T12:34:15.852Z,2.50
2018-03-21T12:36:43.454Z,2.30
2018-03-21T12:39:11.706Z,2.27
2018-03-21T12:41:39.211Z,3.00
2018-03-21T12:44:06.744Z,3.70
2018-03-21T12:46:34.215Z,2.53
2018-03-21T12:49:02.486Z,2.23
2018-03-21T12:51:30.735Z,2.40
2018-03-21T12:53:58.231Z,2.13
2018-03-21T12:56:25.861Z,2.60
2018-03-21T12:58:53.308Z,2.83
2018-03-21T13:01:21.905Z,2.83
2018-03-21T13:03:50.164Z,2.37
2018-03-21T13:06:18.505Z,2.00
2018-03-21T13:08:45.973Z,2.60
2018-03-21T13:11:13.457Z,2.10
2018-03-21T13:13:41.024Z,2.20
2018-03-21T13:16:08.556Z,2.50
2018-03-21T13:18:36.055Z,2.80
2018-03-21T13:21:04.311Z,2.50
2018-03-21T13:23:31.797Z,2.60
2018-03-21T13:25:59.300Z,2.93
2018-03-21T13:28:26.809Z,2.70
2018-03-21T13:30:55.075Z,2.23
2018-03-21T13:33:22.549Z,2.90
2018-03-21T13:35:50.800Z,3.50
2018-03-21T13:38:18.330Z,2.80
2018-03-21T13:40:45.806Z,3.00
2018-03-21T13:43:13.290Z,3.20
2018-03-21T13:45:40.761Z,3.00
2018-03-21T13:48:08.235Z,2.83
2018-03-21T13:50:35.751Z,3.20
2018-03-21T13:53:03.213Z,3.40
2018-03-21T13:55:30.713Z,3.07
2018-03-21T13:57:58.171Z,3.40
2018-03-21T14:00:26.413Z,2.93
2018-03-21T14:02:54.672Z,4.00
2018-03-21T14:05:22.170Z,4.80
2018-03-21T14:07:49.648Z,3.33
2018-03-21T14:10:17.120Z,3.77
2018-03-21T14:12:44.604Z,3.37
2018-03-21T14:15:12.107Z,3.63
2018-03-21T14:17:39.593Z,3.33
2018-03-21T14:20:07.090Z,3.73
2018-03-21T14:22:35.326Z,3.33
2018-03-21T14:25:02.800Z,3.07
2018-03-21T14:27:30.319Z,3.40
2018-03-21T14:29:57.803Z,3.03
2018-03-21T14:32:25.372Z,3.90
2018-03-21T14:34:52.844Z,3.60
2018-03-21T14:37:20.293Z,3.93
2018-03-21T14:39:47.764Z,3.73
2018-03-21T14:42:15.251Z,3.80
2018-03-21T14:44:42.751Z,4.20
2018-03-21T14:47:10.224Z,4.00
2018-03-21T14:49:37.734Z,3.70
2018-03-21T14:52:05.218Z,3.70
2018-03-21T14:54:32.692Z,4.10
2018-03-21T14:57:00.193Z,3.57
2018-03-21T14:59:27.659Z,3.43
2018-03-21T15:01:55.140Z,3.93
2018-03-21T15:04:22.644Z,3.60
2018-03-21T15:06:50.903Z,3.87
2018-03-21T15:09:18.392Z,3.77
2018-03-21T15:11:45.863Z,3.70
2018-03-21T15:14:13.363Z,3.80
2018-03-21T15:16:40.856Z,4.27
2018-03-21T15:19:09.136Z,5.43
2018-03-21T15:21:36.617Z,4.00
2018-03-21T15:24:04.847Z,3.43
2018-03-21T15:26:32.321Z,4.27
2018-03-21T15:28:59.814Z,3.70
2018-03-21T15:31:27.292Z,3.53
2018-03-21T15:33:54.788Z,4.40
2018-03-21T15:36:23.088Z,4.60
2018-03-21T15:38:50.575Z,4.07
2018-03-21T15:41:18.078Z,4.07
2018-03-21T15:43:45.555Z,3.77
2018-03-21T15:46:13.072Z,3.80
2018-03-21T15:48:40.549Z,3.83
2018-03-21T15:51:08.801Z,4.73
2018-03-21T15:53:36.291Z,4.20
2018-03-21T15:56:04.591Z,4.10
2018-03-21T15:58:32.104Z,3.97
2018-03-21T16:00:59.594Z,4.10
2018-03-21T16:03:27.091Z,3.50
2018-03-21T16:05:54.595Z,4.20
2018-03-21T16:08:22.838Z,10.20
2018-03-21T16:10:50.356Z,4.40
2018-03-21T16:13:17.848Z,3.07
2018-03-21T16:15:45.351Z,3.03
2018-03-21T16:18:12.851Z,3.30
2018-03-21T16:20:40.343Z,3.10
2018-03-21T16:23:08.593Z,3.07
2018-03-21T16:25:36.092Z,3.20
2018-03-21T16:28:04.335Z,2.87
2018-03-21T16:30:31.889Z,2.90
2018-03-21T16:32:59.379Z,2.97
2018-03-21T16:35:27.682Z,3.47
2018-03-21T16:37:55.898Z,4.03
2018-03-21T16:40:23.383Z,3.90
2018-03-21T16:42:51.702Z,3.67
2018-03-21T16:45:19.192Z,3.80
2018-03-21T16:47:46.689Z,3.40
2018-03-21T16:50:14.186Z,3.20
2018-03-21T16:52:41.680Z,3.27
2018-03-21T16:55:10.193Z,3.30
2018-03-21T16:57:38.436Z,3.60
2018-03-21T17:00:06.831Z,3.40
2018-03-21T17:02:34.481Z,3.93
2018-03-21T17:05:02.032Z,4.30
2018-03-21T17:07:29.523Z,4.00
2018-03-21T17:09:59.115Z,7.10
2018-03-21T17:12:26.631Z,4.97
2018-03-21T17:14:54.105Z,4.13
2018-03-21T17:17:21.580Z,6.20
2018-03-21T17:19:49.063Z,6.57
2018-03-21T17:22:16.565Z,6.27
2018-03-21T17:24:44.066Z,5.73
2018-03-21T17:27:11.566Z,4.87
2018-03-21T17:29:39.032Z,4.63
2018-03-21T17:32:06.549Z,4.50
2018-03-21T17:34:34.577Z,4.70
2018-03-21T17:37:02.358Z,5.97
2018-03-21T17:39:30.618Z,4.80
2018-03-21T17:41:58.123Z,9.90
2018-03-21T17:44:25.856Z,7.63
2018-03-21T17:46:55.664Z,9.40
2018-03-21T17:49:23.941Z,6.57
2018-03-21T17:51:51.447Z,7.80
2018-03-21T17:54:18.979Z,7.73
2018-03-21T17:56:46.482Z,7.17
2018-03-21T17:59:13.993Z,7.50
2018-03-21T18:01:41.490Z,6.80
2018-03-21T18:04:09.039Z,6.80
2018-03-21T18:06:36.539Z,6.53
2018-03-21T18:09:04.075Z,6.30
2018-03-21T18:11:31.673Z,5.83
2018-03-21T18:13:59.938Z,6.93
2018-03-21T18:16:28.199Z,7.70
2018-03-21T18:18:55.700Z,7.13
2018-03-21T18:21:23.199Z,7.80
2018-03-21T18:23:50.726Z,7.60
2018-03-21T18:26:18.259Z,6.23
2018-03-21T18:28:46.524Z,5.90
2018-03-21T18:31:14.027Z,6.53
2018-03-21T18:33:41.524Z,6.00
2018-03-21T18:36:09.010Z,6.87
2018-03-21T18:38:37.291Z,6.50
2018-03-21T18:41:04.778Z,6.47
2018-03-21T18:43:32.272Z,6.00
2018-03-21T18:45:59.829Z,6.23
2018-03-21T18:48:28.159Z,5.47
2018-03-21T18:50:55.703Z,5.30
2018-03-21T18:53:23.522Z,7.00
2018-03-21T18:55:51.101Z,6.60
2018-03-21T18:58:19.386Z,6.17
2018-03-21T19:00:47.686Z,5.60
2018-03-21T19:03:15.206Z,5.60
2018-03-21T19:05:42.756Z,6.07
2018-03-21T19:08:10.288Z,6.40
2018-03-21T19:10:37.807Z,6.70
2018-03-21T19:13:05.397Z,5.57
2018-03-21T19:15:32.916Z,6.40
2018-03-21T19:18:01.176Z,6.57
2018-03-21T19:20:29.453Z,7.37
2018-03-21T19:22:56.986Z,6.30
2018-03-21T19:25:24.505Z,33.23
2018-03-21T19:27:52.037Z,8.07
2018-03-21T19:30:19.540Z,7.47
2018-03-21T19:32:47.026Z,8.43
2018-03-21T19:35:14.557Z,9.00
2018-03-21T19:37:42.090Z,7.10
2018-03-21T19:40:09.615Z,7.70
2018-03-21T19:42:37.132Z,8.57
2018-03-21T19:45:04.648Z,8.20
2018-03-21T19:47:32.169Z,8.20
2018-03-21T19:49:59.663Z,8.03
2018-03-21T19:52:28.001Z,10.13
2018-03-21T19:54:55.520Z,7.90
2018-03-21T19:57:23.026Z,8.00
2018-03-21T19:59:50.555Z,7.50
2018-03-21T20:02:18.077Z,7.13
2018-03-21T20:04:46.336Z,8.40
2018-03-21T20:07:13.851Z,7.90
2018-03-21T20:09:41.351Z,7.70
2018-03-21T20:12:09.443Z,9.60
2018-03-21T20:14:37.960Z,8.53
2018-03-21T20:17:05.559Z,8.93
2018-03-21T20:19:33.042Z,8.67
2018-03-21T20:22:00.575Z,11.10
2018-03-21T20:24:28.863Z,10.17
2018-03-21T20:26:56.509Z,10.20
2018-03-21T20:29:24.754Z,8.80
2018-03-21T20:31:52.347Z,10.20
2018-03-21T20:34:20.669Z,12.17
2018-03-21T20:36:48.232Z,12.10
2018-03-21T20:39:15.733Z,13.47
2018-03-21T20:41:43.223Z,11.83
2018-03-21T20:44:10.771Z,11.13
2018-03-21T20:46:38.267Z,12.30
2018-03-21T20:49:05.774Z,11.07
2018-03-21T20:51:33.382Z,11.57
2018-03-21T20:54:00.837Z,10.50
2018-03-21T20:56:28.350Z,10.70
2018-03-21T20:58:55.923Z,11.93
2018-03-21T21:01:23.461Z,9.83
2018-03-21T21:03:50.974Z,12.73
2018-03-21T21:06:18.488Z,11.90
2018-03-21T21:08:46.041Z,11.03
2018-03-21T21:11:13.544Z,12.07
2018-03-21T21:13:41.092Z,11.77
2018-03-21T21:16:08.611Z,12.27
2018-03-21T21:18:36.092Z,13.40
2018-03-21T21:21:04.378Z,12.47
2018-03-21T21:23:32.630Z,13.70
2018-03-21T21:26:00.155Z,15.13
2018-03-21T21:28:28.814Z,12.00
2018-03-21T21:30:56.323Z,11.60
2018-03-21T21:33:23.832Z,11.57
2018-03-21T21:35:51.339Z,11.27
2018-03-21T21:38:19.777Z,12.80
2018-03-21T21:40:47.279Z,11.90
2018-03-21T21:43:14.802Z,13.37
2018-03-21T21:45:43.172Z,17.10
2018-03-21T21:48:10.809Z,17.30
2018-03-21T21:50:38.341Z,15.50
2018-03-21T21:53:05.825Z,14.30
2018-03-21T21:55:33.332Z,15.63
2018-03-21T21:58:00.924Z,16.17
2018-03-21T22:00:28.430Z,14.07
2018-03-21T22:02:55.941Z,12.20
2018-03-21T22:05:24.270Z,12.60
2018-03-21T22:07:51.774Z,13.43
2018-03-21T22:10:20.065Z,14.00
2018-03-21T22:12:48.342Z,13.27
2018-03-21T22:15:15.886Z,17.13
2018-03-21T22:17:43.364Z,12.90
2018-03-21T22:20:10.832Z,14.60
2018-03-21T22:22:38.341Z,15.17
2018-03-21T22:25:05.853Z,17.50
2018-03-21T22:27:33.360Z,14.23
2018-03-21T22:30:00.846Z,19.33
2018-03-21T22:32:28.791Z,16.83
2018-03-21T22:34:56.320Z,12.83
2018-03-21T22:37:23.840Z,12.77
2018-03-21T22:39:51.646Z,12.90
2018-03-21T22:42:19.124Z,11.60
2018-03-21T22:44:46.642Z,12.03
2018-03-21T22:47:14.135Z,15.80
2018-03-21T22:49:41.658Z,12.33
2018-03-21T22:52:09.183Z,13.73
2018-03-21T22:54:36.680Z,12.67
2018-03-21T22:57:04.164Z,11.47
2018-03-21T22:59:31.673Z,12.00
2018-03-21T23:01:59.151Z,12.70
2018-03-21T23:04:26.648Z,12.90
2018-03-21T23:06:54.163Z,11.70
2018-03-21T23:09:22.448Z,13.20
2018-03-21T23:11:50.579Z,12.90
2018-03-21T23:14:21.741Z,11.50
2018-03-21T23:16:50.217Z,11.67
2018-03-21T23:19:18.383Z,12.50
2018-03-21T23:21:45.901Z,12.60
2018-03-21T23:24:13.460Z,13.10
2018-03-21T23:26:40.974Z,14.10
2018-03-21T23:29:08.530Z,13.33
2018-03-21T23:31:36.080Z,14.63
2018-03-21T23:34:03.593Z,13.00
2018-03-21T23:36:31.154Z,11.70
2018-03-21T23:38:58.647Z,12.10
2018-03-21T23:41:26.152Z,12.07
2018-03-21T23:43:53.675Z,11.73
2018-03-21T23:46:21.172Z,12.00
2018-03-21T23:48:48.679Z,11.23
2018-03-21T23:51:16.911Z,13.97
2018-03-21T23:53:44.417Z,12.57
2018-03-21T23:56:11.917Z,12.13
2018-03-21T23:58:39.407Z,11.40
